sensor_id;sensor_type;location;lat;lon;timestamp;P1;durP1;ratioP1;P2;durP2;ratioP2
3939;SDS011;1984;48.312;9.244;2023-02-28T00:00:05;2.23;;;2.00;;
3939;SDS011;1984;48.312;9.244;2023-02-28T00:02:39;1.53;;;1.43;;
3939;SDS011;1984;48.312;9.244;2023-02-28T00:05:05;2.43;;;2.03;;
3939;SDS011;1984;48.312;9.244;2023-02-28T00:07:32;1.80;;;1.70;;
3939;SDS011;1984;48.312;9.244;2023-02-28T00:09:58;5.13;;;3.30;;
3939;SDS011;1984;48.312;9.244;2023-02-28T00:12:24;2.57;;;2.20;;
3939;SDS011;1984;48.312;9.244;2023-02-28T00:14:50;1.70;;;1.60;;
3939;SDS011;1984;48.312;9.244;2023-02-28T00:17:16;2.50;;;1.97;;
3939;SDS011;1984;48.312;9.244;2023-02-28T00:19:49;1.90;;;1.70;;
3939;SDS011;1984;48.312;9.244;2023-02-28T00:22:16;2.83;;;1.80;;
3939;SDS011;1984;48.312;9.244;2023-02-28T00:24:43;13.53;;;2.10;;
3939;SDS011;1984;48.312;9.244;2023-02-28T00:27:08;2.50;;;2.27;;
3939;SDS011;1984;48.312;9.244;2023-02-28T00:29:34;7.27;;;1.50;;
3939;SDS011;1984;48.312;9.244;2023-02-28T00:32:00;4.00;;;1.90;;
3939;SDS011;1984;48.312;9.244;2023-02-28T00:34:26;1.83;;;1.73;;
3939;SDS011;1984;48.312;9.244;2023-02-28T00:36:52;1.70;;;1.50;;
3939;SDS011;1984;48.312;9.244;2023-02-28T00:39:17;2.13;;;1.70;;
3939;SDS011;1984;48.312;9.244;2023-02-28T00:41:43;3.20;;;1.90;;
3939;SDS011;1984;48.312;9.244;2023-02-28T00:44:08;4.40;;;2.57;;
3939;SDS011;1984;48.312;9.244;2023-02-28T00:46:34;2.73;;;1.97;;
3939;SDS011;1984;48.312;9.244;2023-02-28T00:49:00;1.43;;;1.33;;
3939;SDS011;1984;48.312;9.244;2023-02-28T00:51:25;2.13;;;2.03;;
3939;SDS011;1984;48.312;9.244;2023-02-28T00:53:51;2.90;;;1.60;;
3939;SDS011;1984;48.312;9.244;2023-02-28T00:56:16;1.33;;;1.27;;
3939;SDS011;1984;48.312;9.244;2023-02-28T00:58:42;1.53;;;1.43;;
3939;SDS011;1984;48.312;9.244;2023-02-28T01:01:07;4.20;;;1.73;;
3939;SDS011;1984;48.312;9.244;2023-02-28T01:03:33;2.20;;;1.50;;
3939;SDS011;1984;48.312;9.244;2023-02-28T01:05:58;2.03;;;1.93;;
3939;SDS011;1984;48.312;9.244;2023-02-28T01:08:24;7.10;;;2.93;;
3939;SDS011;1984;48.312;9.244;2023-02-28T01:10:51;1.93;;;1.83;;
3939;SDS011;1984;48.312;9.244;2023-02-28T01:13:17;4.20;;;1.60;;
3939;SDS011;1984;48.312;9.244;2023-02-28T01:15:48;3.73;;;2.33;;
3939;SDS011;1984;48.312;9.244;2023-02-28T01:18:15;3.70;;;1.60;;
3939;SDS011;1984;48.312;9.244;2023-02-28T01:20:41;4.60;;;2.00;;
3939;SDS011;1984;48.312;9.244;2023-02-28T01:23:07;1.80;;;1.70;;
3939;SDS011;1984;48.312;9.244;2023-02-28T01:25:34;1.87;;;1.70;;
3939;SDS011;1984;48.312;9.244;2023-02-28T01:28:00;1.70;;;1.60;;
3939;SDS011;1984;48.312;9.244;2023-02-28T01:30:25;1.63;;;1.53;;
3939;SDS011;1984;48.312;9.244;2023-02-28T01:32:51;2.07;;;1.77;;
3939;SDS011;1984;48.312;9.244;2023-02-28T01:35:18;1.37;;;1.27;;
3939;SDS011;1984;48.312;9.244;2023-02-28T01:37:44;1.70;;;1.60;;
3939;SDS011;1984;48.312;9.244;2023-02-28T01:40:10;2.20;;;2.10;;
3939;SDS011;1984;48.312;9.244;2023-02-28T01:42:36;2.03;;;1.90;;
3939;SDS011;1984;48.312;9.244;2023-02-28T01:47:49;1.70;;;1.60;;
3939;SDS011;1984;48.312;9.244;2023-02-28T01:50:18;1.33;;;1.17;;
3939;SDS011;1984;48.312;9.244;2023-02-28T01:52:46;5.60;;;1.30;;
3939;SDS011;1984;48.312;9.244;2023-02-28T01:55:13;2.23;;;2.13;;
3939;SDS011;1984;48.312;9.244;2023-02-28T01:57:43;2.20;;;1.97;;
3939;SDS011;1984;48.312;9.244;2023-02-28T02:00:13;1.93;;;1.63;;
3939;SDS011;1984;48.312;9.244;2023-02-28T02:02:41;4.00;;;2.83;;
3939;SDS011;1984;48.312;9.244;2023-02-28T02:05:11;3.10;;;2.23;;
3939;SDS011;1984;48.312;9.244;2023-02-28T02:07:41;1.20;;;1.20;;
3939;SDS011;1984;48.312;9.244;2023-02-28T02:10:15;2.03;;;1.83;;
3939;SDS011;1984;48.312;9.244;2023-02-28T02:15:35;2.00;;;1.90;;
3939;SDS011;1984;48.312;9.244;2023-02-28T02:31:52;2.93;;;1.80;;
3939;SDS011;1984;48.312;9.244;2023-02-28T02:34:51;2.80;;;2.43;;
3939;SDS011;1984;48.312;9.244;2023-02-28T02:37:36;1.80;;;1.60;;
3939;SDS011;1984;48.312;9.244;2023-02-28T02:42:50;2.00;;;1.87;;
3939;SDS011;1984;48.312;9.244;2023-02-28T02:45:31;1.30;;;1.30;;
3939;SDS011;1984;48.312;9.244;2023-02-28T02:48:01;1.40;;;1.30;;
3939;SDS011;1984;48.312;9.244;2023-02-28T02:50:31;4.30;;;1.80;;
3939;SDS011;1984;48.312;9.244;2023-02-28T02:53:02;2.10;;;1.53;;
3939;SDS011;1984;48.312;9.244;2023-02-28T02:55:31;1.47;;;1.37;;
3939;SDS011;1984;48.312;9.244;2023-02-28T02:58:04;1.60;;;1.50;;
3939;SDS011;1984;48.312;9.244;2023-02-28T03:00:34;2.10;;;2.00;;
3939;SDS011;1984;48.312;9.244;2023-02-28T03:03:03;1.80;;;1.63;;
3939;SDS011;1984;48.312;9.244;2023-02-28T03:05:33;2.63;;;1.97;;
3939;SDS011;1984;48.312;9.244;2023-02-28T03:08:19;2.40;;;1.80;;
3939;SDS011;1984;48.312;9.244;2023-02-28T03:10:46;8.67;;;2.17;;
3939;SDS011;1984;48.312;9.244;2023-02-28T03:13:22;1.87;;;1.77;;
3939;SDS011;1984;48.312;9.244;2023-02-28T03:24:53;3.60;;;2.37;;
3939;SDS011;1984;48.312;9.244;2023-02-28T03:27:36;1.87;;;1.77;;
3939;SDS011;1984;48.312;9.244;2023-02-28T03:30:26;2.40;;;1.80;;
3939;SDS011;1984;48.312;9.244;2023-02-28T03:33:05;5.30;;;2.50;;
3939;SDS011;1984;48.312;9.244;2023-02-28T03:35:42;1.80;;;1.50;;
3939;SDS011;1984;48.312;9.244;2023-02-28T03:41:22;1.73;;;1.60;;
3939;SDS011;1984;48.312;9.244;2023-02-28T03:43:53;4.23;;;2.57;;
3939;SDS011;1984;48.312;9.244;2023-02-28T03:46:22;4.90;;;1.80;;
3939;SDS011;1984;48.312;9.244;2023-02-28T03:49:02;2.10;;;2.00;;
3939;SDS011;1984;48.312;9.244;2023-02-28T03:51:34;2.80;;;2.60;;
3939;SDS011;1984;48.312;9.244;2023-02-28T03:54:07;5.03;;;2.03;;
3939;SDS011;1984;48.312;9.244;2023-02-28T03:56:50;1.80;;;1.40;;
3939;SDS011;1984;48.312;9.244;2023-02-28T03:59:28;7.20;;;2.50;;
3939;SDS011;1984;48.312;9.244;2023-02-28T04:02:02;2.60;;;2.40;;
3939;SDS011;1984;48.312;9.244;2023-02-28T04:04:27;4.80;;;1.80;;
3939;SDS011;1984;48.312;9.244;2023-02-28T04:07:00;1.57;;;1.47;;
3939;SDS011;1984;48.312;9.244;2023-02-28T04:09:30;2.13;;;2.03;;
3939;SDS011;1984;48.312;9.244;2023-02-28T04:11:56;2.57;;;2.27;;
3939;SDS011;1984;48.312;9.244;2023-02-28T04:14:22;2.20;;;1.30;;
3939;SDS011;1984;48.312;9.244;2023-02-28T04:16:48;3.30;;;2.30;;
3939;SDS011;1984;48.312;9.244;2023-02-28T04:19:14;2.30;;;2.10;;
3939;SDS011;1984;48.312;9.244;2023-02-28T04:21:40;2.40;;;2.20;;
3939;SDS011;1984;48.312;9.244;2023-02-28T04:24:08;3.37;;;3.07;;
3939;SDS011;1984;48.312;9.244;2023-02-28T04:26:39;4.33;;;1.90;;
3939;SDS011;1984;48.312;9.244;2023-02-28T04:29:06;2.63;;;2.40;;
3939;SDS011;1984;48.312;9.244;2023-02-28T04:31:32;2.90;;;2.20;;
3939;SDS011;1984;48.312;9.244;2023-02-28T04:33:58;4.40;;;2.13;;
3939;SDS011;1984;48.312;9.244;2023-02-28T04:36:24;2.40;;;2.20;;
3939;SDS011;1984;48.312;9.244;2023-02-28T04:38:50;3.13;;;1.90;;
3939;SDS011;1984;48.312;9.244;2023-02-28T04:41:16;10.50;;;2.37;;
3939;SDS011;1984;48.312;9.244;2023-02-28T04:43:41;2.27;;;2.10;;
3939;SDS011;1984;48.312;9.244;2023-02-28T04:46:07;2.50;;;2.30;;
3939;SDS011;1984;48.312;9.244;2023-02-28T04:48:34;1.23;;;1.00;;
3939;SDS011;1984;48.312;9.244;2023-02-28T04:51:02;3.53;;;2.70;;
3939;SDS011;1984;48.312;9.244;2023-02-28T04:53:29;3.10;;;2.53;;
3939;SDS011;1984;48.312;9.244;2023-02-28T04:55:55;2.90;;;2.70;;
3939;SDS011;1984;48.312;9.244;2023-02-28T04:58:21;5.23;;;2.50;;
3939;SDS011;1984;48.312;9.244;2023-02-28T05:00:50;2.90;;;2.30;;
3939;SDS011;1984;48.312;9.244;2023-02-28T05:03:16;2.53;;;2.33;;
3939;SDS011;1984;48.312;9.244;2023-02-28T05:05:42;2.67;;;2.37;;
3939;SDS011;1984;48.312;9.244;2023-02-28T05:08:07;2.83;;;2.00;;
3939;SDS011;1984;48.312;9.244;2023-02-28T05:10:34;4.43;;;2.60;;
3939;SDS011;1984;48.312;9.244;2023-02-28T05:13:00;2.03;;;1.83;;
3939;SDS011;1984;48.312;9.244;2023-02-28T05:15:26;4.13;;;2.60;;
3939;SDS011;1984;48.312;9.244;2023-02-28T05:17:51;3.17;;;2.43;;
3939;SDS011;1984;48.312;9.244;2023-02-28T05:20:17;2.20;;;1.57;;
3939;SDS011;1984;48.312;9.244;2023-02-28T05:22:43;3.03;;;2.40;;
3939;SDS011;1984;48.312;9.244;2023-02-28T05:25:10;5.00;;;3.40;;
3939;SDS011;1984;48.312;9.244;2023-02-28T05:27:40;5.07;;;3.63;;
3939;SDS011;1984;48.312;9.244;2023-02-28T05:30:07;7.00;;;4.40;;
3939;SDS011;1984;48.312;9.244;2023-02-28T05:32:35;5.80;;;3.30;;
3939;SDS011;1984;48.312;9.244;2023-02-28T05:35:01;7.13;;;3.87;;
3939;SDS011;1984;48.312;9.244;2023-02-28T05:37:27;3.23;;;2.90;;
3939;SDS011;1984;48.312;9.244;2023-02-28T05:39:53;4.10;;;2.97;;
3939;SDS011;1984;48.312;9.244;2023-02-28T05:42:18;4.00;;;3.27;;
3939;SDS011;1984;48.312;9.244;2023-02-28T05:44:44;2.70;;;2.50;;
3939;SDS011;1984;48.312;9.244;2023-02-28T05:47:09;6.03;;;3.57;;
3939;SDS011;1984;48.312;9.244;2023-02-28T05:49:35;5.57;;;4.07;;
3939;SDS011;1984;48.312;9.244;2023-02-28T05:52:00;4.37;;;3.60;;
3939;SDS011;1984;48.312;9.244;2023-02-28T05:54:26;6.30;;;2.40;;
3939;SDS011;1984;48.312;9.244;2023-02-28T05:56:51;7.60;;;4.63;;
3939;SDS011;1984;48.312;9.244;2023-02-28T05:59:17;4.50;;;1.80;;
3939;SDS011;1984;48.312;9.244;2023-02-28T06:01:43;3.33;;;2.50;;
3939;SDS011;1984;48.312;9.244;2023-02-28T06:04:14;6.07;;;4.17;;
3939;SDS011;1984;48.312;9.244;2023-02-28T06:06:51;3.90;;;3.17;;
3939;SDS011;1984;48.312;9.244;2023-02-28T06:09:17;6.23;;;3.67;;
3939;SDS011;1984;48.312;9.244;2023-02-28T06:11:44;2.93;;;2.60;;
3939;SDS011;1984;48.312;9.244;2023-02-28T06:14:14;6.13;;;4.13;;
3939;SDS011;1984;48.312;9.244;2023-02-28T06:16:41;3.53;;;3.23;;
3939;SDS011;1984;48.312;9.244;2023-02-28T06:19:08;6.20;;;3.83;;
3939;SDS011;1984;48.312;9.244;2023-02-28T06:21:34;3.57;;;3.17;;
3939;SDS011;1984;48.312;9.244;2023-02-28T06:23:59;5.80;;;3.80;;
3939;SDS011;1984;48.312;9.244;2023-02-28T06:26:25;6.80;;;3.60;;
3939;SDS011;1984;48.312;9.244;2023-02-28T06:28:51;6.93;;;4.00;;
3939;SDS011;1984;48.312;9.244;2023-02-28T06:31:17;10.80;;;3.63;;
3939;SDS011;1984;48.312;9.244;2023-02-28T06:33:43;22.00;;;7.13;;
3939;SDS011;1984;48.312;9.244;2023-02-28T06:36:10;5.50;;;3.50;;
3939;SDS011;1984;48.312;9.244;2023-02-28T06:38:37;6.53;;;2.97;;
3939;SDS011;1984;48.312;9.244;2023-02-28T06:41:03;4.50;;;3.37;;
3939;SDS011;1984;48.312;9.244;2023-02-28T06:43:31;3.63;;;3.33;;
3939;SDS011;1984;48.312;9.244;2023-02-28T06:45:59;4.77;;;3.93;;
3939;SDS011;1984;48.312;9.244;2023-02-28T06:48:25;5.80;;;3.83;;
3939;SDS011;1984;48.312;9.244;2023-02-28T06:50:52;6.77;;;4.57;;
3939;SDS011;1984;48.312;9.244;2023-02-28T06:53:25;4.67;;;3.87;;
3939;SDS011;1984;48.312;9.244;2023-02-28T06:55:51;6.30;;;3.93;;
3939;SDS011;1984;48.312;9.244;2023-02-28T06:58:16;5.77;;;3.87;;
3939;SDS011;1984;48.312;9.244;2023-02-28T07:00:45;4.13;;;3.83;;
3939;SDS011;1984;48.312;9.244;2023-02-28T07:03:11;53.93;;;3.20;;
3939;SDS011;1984;48.312;9.244;2023-02-28T07:05:38;4.40;;;3.70;;
3939;SDS011;1984;48.312;9.244;2023-02-28T07:08:05;3.33;;;2.20;;
3939;SDS011;1984;48.312;9.244;2023-02-28T07:10:31;5.10;;;3.13;;
3939;SDS011;1984;48.312;9.244;2023-02-28T07:12:57;5.90;;;4.50;;
3939;SDS011;1984;48.312;9.244;2023-02-28T07:15:24;8.90;;;3.50;;
3939;SDS011;1984;48.312;9.244;2023-02-28T07:17:49;6.40;;;3.67;;
3939;SDS011;1984;48.312;9.244;2023-02-28T07:20:15;5.27;;;4.13;;
3939;SDS011;1984;48.312;9.244;2023-02-28T07:22:41;4.43;;;3.83;;
3939;SDS011;1984;48.312;9.244;2023-02-28T07:25:06;6.10;;;4.60;;
3939;SDS011;1984;48.312;9.244;2023-02-28T07:27:33;7.60;;;4.30;;
3939;SDS011;1984;48.312;9.244;2023-02-28T07:29:59;4.80;;;3.03;;
3939;SDS011;1984;48.312;9.244;2023-02-28T07:32:26;5.30;;;3.53;;
3939;SDS011;1984;48.312;9.244;2023-02-28T07:34:52;4.97;;;3.80;;
3939;SDS011;1984;48.312;9.244;2023-02-28T07:37:18;4.40;;;1.80;;
3939;SDS011;1984;48.312;9.244;2023-02-28T07:39:44;4.57;;;3.70;;
3939;SDS011;1984;48.312;9.244;2023-02-28T07:42:09;6.47;;;3.80;;
3939;SDS011;1984;48.312;9.244;2023-02-28T07:44:37;6.33;;;3.40;;
3939;SDS011;1984;48.312;9.244;2023-02-28T07:47:05;7.70;;;4.17;;
3939;SDS011;1984;48.312;9.244;2023-02-28T07:49:32;4.40;;;3.83;;
3939;SDS011;1984;48.312;9.244;2023-02-28T07:51:59;5.93;;;3.93;;
3939;SDS011;1984;48.312;9.244;2023-02-28T07:54:24;6.47;;;3.53;;
3939;SDS011;1984;48.312;9.244;2023-02-28T07:56:50;2.07;;;1.90;;
3939;SDS011;1984;48.312;9.244;2023-02-28T07:59:15;6.00;;;4.07;;
3939;SDS011;1984;48.312;9.244;2023-02-28T08:01:41;5.60;;;4.30;;
3939;SDS011;1984;48.312;9.244;2023-02-28T08:04:09;8.77;;;4.87;;
3939;SDS011;1984;48.312;9.244;2023-02-28T08:06:35;6.57;;;4.20;;
3939;SDS011;1984;48.312;9.244;2023-02-28T08:09:00;7.30;;;4.30;;
3939;SDS011;1984;48.312;9.244;2023-02-28T08:11:26;6.13;;;4.20;;
3939;SDS011;1984;48.312;9.244;2023-02-28T08:13:51;1.23;;;1.23;;
3939;SDS011;1984;48.312;9.244;2023-02-28T08:16:17;5.57;;;3.73;;
3939;SDS011;1984;48.312;9.244;2023-02-28T08:18:46;7.70;;;4.00;;
3939;SDS011;1984;48.312;9.244;2023-02-28T08:21:15;2.90;;;2.43;;
3939;SDS011;1984;48.312;9.244;2023-02-28T08:23:41;4.87;;;3.70;;
3939;SDS011;1984;48.312;9.244;2023-02-28T08:26:07;4.97;;;4.23;;
3939;SDS011;1984;48.312;9.244;2023-02-28T08:28:32;7.10;;;4.13;;
3939;SDS011;1984;48.312;9.244;2023-02-28T08:30:58;10.90;;;5.03;;
3939;SDS011;1984;48.312;9.244;2023-02-28T08:33:24;5.63;;;4.07;;
3939;SDS011;1984;48.312;9.244;2023-02-28T08:35:54;6.30;;;4.10;;
3939;SDS011;1984;48.312;9.244;2023-02-28T08:38:20;6.60;;;5.17;;
3939;SDS011;1984;48.312;9.244;2023-02-28T08:40:47;7.57;;;3.00;;
3939;SDS011;1984;48.312;9.244;2023-02-28T08:43:12;5.33;;;4.30;;
3939;SDS011;1984;48.312;9.244;2023-02-28T08:45:38;6.30;;;4.70;;
3939;SDS011;1984;48.312;9.244;2023-02-28T08:48:03;5.60;;;4.00;;
3939;SDS011;1984;48.312;9.244;2023-02-28T08:50:29;15.20;;;3.60;;
3939;SDS011;1984;48.312;9.244;2023-02-28T08:52:54;4.97;;;3.60;;
3939;SDS011;1984;48.312;9.244;2023-02-28T08:55:20;11.93;;;5.20;;
3939;SDS011;1984;48.312;9.244;2023-02-28T08:57:45;3.83;;;3.33;;
3939;SDS011;1984;48.312;9.244;2023-02-28T09:00:11;9.90;;;5.37;;
3939;SDS011;1984;48.312;9.244;2023-02-28T09:02:38;12.07;;;5.20;;
3939;SDS011;1984;48.312;9.244;2023-02-28T09:05:05;5.57;;;3.80;;
3939;SDS011;1984;48.312;9.244;2023-02-28T09:07:31;8.33;;;5.67;;
3939;SDS011;1984;48.312;9.244;2023-02-28T09:09:56;7.50;;;4.97;;
3939;SDS011;1984;48.312;9.244;2023-02-28T09:12:26;3.07;;;2.80;;
3939;SDS011;1984;48.312;9.244;2023-02-28T09:14:56;6.20;;;4.17;;
3939;SDS011;1984;48.312;9.244;2023-02-28T09:17:22;13.23;;;7.40;;
3939;SDS011;1984;48.312;9.244;2023-02-28T09:19:49;7.20;;;5.23;;
3939;SDS011;1984;48.312;9.244;2023-02-28T09:22:14;8.50;;;4.90;;
3939;SDS011;1984;48.312;9.244;2023-02-28T09:24:40;4.33;;;2.87;;
3939;SDS011;1984;48.312;9.244;2023-02-28T09:27:06;3.83;;;2.50;;
3939;SDS011;1984;48.312;9.244;2023-02-28T09:29:32;7.93;;;4.60;;
3939;SDS011;1984;48.312;9.244;2023-02-28T09:31:58;7.87;;;5.53;;
3939;SDS011;1984;48.312;9.244;2023-02-28T09:34:28;4.70;;;4.07;;
3939;SDS011;1984;48.312;9.244;2023-02-28T09:36:55;7.30;;;4.70;;
3939;SDS011;1984;48.312;9.244;2023-02-28T09:39:21;7.93;;;3.60;;
3939;SDS011;1984;48.312;9.244;2023-02-28T09:41:48;9.60;;;4.97;;
3939;SDS011;1984;48.312;9.244;2023-02-28T09:44:38;5.87;;;3.83;;
3939;SDS011;1984;48.312;9.244;2023-02-28T09:47:10;5.00;;;3.53;;
3939;SDS011;1984;48.312;9.244;2023-02-28T09:49:40;7.40;;;5.17;;
3939;SDS011;1984;48.312;9.244;2023-02-28T09:52:10;3.80;;;3.33;;
3939;SDS011;1984;48.312;9.244;2023-02-28T09:54:38;13.33;;;5.00;;
3939;SDS011;1984;48.312;9.244;2023-02-28T09:57:11;10.40;;;5.23;;
3939;SDS011;1984;48.312;9.244;2023-02-28T10:00:36;9.73;;;5.70;;
3939;SDS011;1984;48.312;9.244;2023-02-28T10:05:43;10.97;;;5.87;;
3939;SDS011;1984;48.312;9.244;2023-02-28T10:08:32;5.63;;;4.67;;
3939;SDS011;1984;48.312;9.244;2023-02-28T10:11:06;9.57;;;5.57;;
3939;SDS011;1984;48.312;9.244;2023-02-28T10:13:52;12.23;;;6.33;;
3939;SDS011;1984;48.312;9.244;2023-02-28T10:16:30;8.73;;;5.30;;
3939;SDS011;1984;48.312;9.244;2023-02-28T10:22:08;4.40;;;2.80;;
3939;SDS011;1984;48.312;9.244;2023-02-28T10:24:43;7.03;;;5.00;;
3939;SDS011;1984;48.312;9.244;2023-02-28T10:27:17;7.70;;;5.23;;
3939;SDS011;1984;48.312;9.244;2023-02-28T10:29:49;6.90;;;4.80;;
3939;SDS011;1984;48.312;9.244;2023-02-28T10:32:18;7.10;;;4.53;;
3939;SDS011;1984;48.312;9.244;2023-02-28T10:34:50;3.40;;;3.10;;
3939;SDS011;1984;48.312;9.244;2023-02-28T10:37:37;5.70;;;3.67;;
3939;SDS011;1984;48.312;9.244;2023-02-28T10:40:05;7.67;;;5.27;;
3939;SDS011;1984;48.312;9.244;2023-02-28T10:42:33;5.63;;;4.47;;
3939;SDS011;1984;48.312;9.244;2023-02-28T10:45:14;7.63;;;4.90;;
3939;SDS011;1984;48.312;9.244;2023-02-28T10:47:57;12.43;;;6.10;;
3939;SDS011;1984;48.312;9.244;2023-02-28T10:55:55;5.23;;;4.00;;
3939;SDS011;1984;48.312;9.244;2023-02-28T10:58:24;7.80;;;4.33;;
3939;SDS011;1984;48.312;9.244;2023-02-28T11:00:51;8.87;;;5.17;;
3939;SDS011;1984;48.312;9.244;2023-02-28T11:03:23;8.00;;;4.60;;
3939;SDS011;1984;48.312;9.244;2023-02-28T11:06:04;4.77;;;3.37;;
3939;SDS011;1984;48.312;9.244;2023-02-28T11:08:43;9.10;;;5.10;;
3939;SDS011;1984;48.312;9.244;2023-02-28T11:11:11;13.83;;;7.13;;
3939;SDS011;1984;48.312;9.244;2023-02-28T11:13:37;7.20;;;4.00;;
3939;SDS011;1984;48.312;9.244;2023-02-28T11:16:04;7.10;;;4.47;;
3939;SDS011;1984;48.312;9.244;2023-02-28T11:18:53;4.37;;;3.80;;
3939;SDS011;1984;48.312;9.244;2023-02-28T11:21:26;3.83;;;2.87;;
3939;SDS011;1984;48.312;9.244;2023-02-28T11:23:57;13.33;;;5.53;;
3939;SDS011;1984;48.312;9.244;2023-02-28T11:26:45;13.47;;;4.13;;
3939;SDS011;1984;48.312;9.244;2023-02-28T11:32:00;6.60;;;5.00;;
3939;SDS011;1984;48.312;9.244;2023-02-28T11:34:29;6.57;;;4.13;;
3939;SDS011;1984;48.312;9.244;2023-02-28T11:36:57;2.50;;;2.30;;
3939;SDS011;1984;48.312;9.244;2023-02-28T11:39:24;6.13;;;4.47;;
3939;SDS011;1984;48.312;9.244;2023-02-28T11:44:48;6.57;;;4.50;;
3939;SDS011;1984;48.312;9.244;2023-02-28T11:47:36;10.30;;;5.93;;
3939;SDS011;1984;48.312;9.244;2023-02-28T11:55:32;6.60;;;4.73;;
3939;SDS011;1984;48.312;9.244;2023-02-28T11:58:14;10.30;;;5.70;;
3939;SDS011;1984;48.312;9.244;2023-02-28T12:01:11;4.53;;;3.30;;
3939;SDS011;1984;48.312;9.244;2023-02-28T12:12:05;7.43;;;4.63;;
3939;SDS011;1984;48.312;9.244;2023-02-28T12:14:46;7.63;;;4.63;;
3939;SDS011;1984;48.312;9.244;2023-02-28T12:17:32;7.57;;;5.23;;
3939;SDS011;1984;48.312;9.244;2023-02-28T12:20:28;7.77;;;5.60;;
3939;SDS011;1984;48.312;9.244;2023-02-28T12:23:15;9.97;;;5.60;;
3939;SDS011;1984;48.312;9.244;2023-02-28T12:26:07;8.17;;;5.47;;
3939;SDS011;1984;48.312;9.244;2023-02-28T12:28:47;9.53;;;6.43;;
3939;SDS011;1984;48.312;9.244;2023-02-28T12:31:18;5.87;;;4.10;;
3939;SDS011;1984;48.312;9.244;2023-02-28T12:33:50;2.83;;;2.10;;
3939;SDS011;1984;48.312;9.244;2023-02-28T12:36:19;7.90;;;6.00;;
3939;SDS011;1984;48.312;9.244;2023-02-28T12:41:17;7.57;;;5.67;;
3939;SDS011;1984;48.312;9.244;2023-02-28T12:43:50;6.53;;;5.00;;
3939;SDS011;1984;48.312;9.244;2023-02-28T12:46:23;7.40;;;5.60;;
3939;SDS011;1984;48.312;9.244;2023-02-28T12:48:55;6.33;;;4.77;;
3939;SDS011;1984;48.312;9.244;2023-02-28T12:51:23;6.53;;;4.30;;
3939;SDS011;1984;48.312;9.244;2023-02-28T12:59:27;7.83;;;5.83;;
3939;SDS011;1984;48.312;9.244;2023-02-28T13:10:47;13.93;;;4.33;;
3939;SDS011;1984;48.312;9.244;2023-02-28T13:13:21;6.53;;;4.63;;
3939;SDS011;1984;48.312;9.244;2023-02-28T13:16:04;7.07;;;5.60;;
3939;SDS011;1984;48.312;9.244;2023-02-28T13:21:22;13.03;;;6.93;;
3939;SDS011;1984;48.312;9.244;2023-02-28T13:26:20;10.13;;;5.80;;
3939;SDS011;1984;48.312;9.244;2023-02-28T13:32:18;5.07;;;3.37;;
3939;SDS011;1984;48.312;9.244;2023-02-28T13:34:36;6.77;;;4.60;;
3939;SDS011;1984;48.312;9.244;2023-02-28T13:42:22;7.33;;;5.23;;
3939;SDS011;1984;48.312;9.244;2023-02-28T13:47:28;8.30;;;5.60;;
3939;SDS011;1984;48.312;9.244;2023-02-28T13:49:55;7.83;;;5.60;;
3939;SDS011;1984;48.312;9.244;2023-02-28T13:52:54;4.47;;;3.70;;
3939;SDS011;1984;48.312;9.244;2023-02-28T14:01:53;7.50;;;5.63;;
3939;SDS011;1984;48.312;9.244;2023-02-28T14:04:43;10.33;;;7.17;;
3939;SDS011;1984;48.312;9.244;2023-02-28T14:07:18;7.13;;;5.80;;
3939;SDS011;1984;48.312;9.244;2023-02-28T14:09:57;7.60;;;5.73;;
3939;SDS011;1984;48.312;9.244;2023-02-28T14:15:25;6.73;;;5.30;;
3939;SDS011;1984;48.312;9.244;2023-02-28T14:17:57;7.13;;;4.63;;
3939;SDS011;1984;48.312;9.244;2023-02-28T14:20:26;8.13;;;5.80;;
3939;SDS011;1984;48.312;9.244;2023-02-28T14:25:33;7.63;;;6.17;;
3939;SDS011;1984;48.312;9.244;2023-02-28T14:28:17;9.10;;;5.70;;
3939;SDS011;1984;48.312;9.244;2023-02-28T14:33:56;7.17;;;5.80;;
3939;SDS011;1984;48.312;9.244;2023-02-28T14:36:42;6.97;;;5.20;;
3939;SDS011;1984;48.312;9.244;2023-02-28T14:39:15;8.70;;;5.93;;
3939;SDS011;1984;48.312;9.244;2023-02-28T14:41:44;9.67;;;6.10;;
3939;SDS011;1984;48.312;9.244;2023-02-28T14:44:13;10.37;;;5.90;;
3939;SDS011;1984;48.312;9.244;2023-02-28T14:46:41;7.90;;;5.77;;
3939;SDS011;1984;48.312;9.244;2023-02-28T14:49:21;7.77;;;5.90;;
3939;SDS011;1984;48.312;9.244;2023-02-28T14:52:12;8.57;;;5.50;;
3939;SDS011;1984;48.312;9.244;2023-02-28T14:54:42;7.50;;;5.90;;
3939;SDS011;1984;48.312;9.244;2023-02-28T14:57:29;11.07;;;6.67;;
3939;SDS011;1984;48.312;9.244;2023-02-28T14:59:57;8.53;;;5.70;;
3939;SDS011;1984;48.312;9.244;2023-02-28T15:02:25;7.07;;;5.50;;
3939;SDS011;1984;48.312;9.244;2023-02-28T15:04:55;5.27;;;4.50;;
3939;SDS011;1984;48.312;9.244;2023-02-28T15:07:22;10.70;;;6.50;;
3939;SDS011;1984;48.312;9.244;2023-02-28T15:12:58;9.13;;;5.30;;
3939;SDS011;1984;48.312;9.244;2023-02-28T15:15:49;8.33;;;5.60;;
3939;SDS011;1984;48.312;9.244;2023-02-28T15:18:24;8.50;;;5.53;;
3939;SDS011;1984;48.312;9.244;2023-02-28T15:20:53;6.07;;;5.40;;
3939;SDS011;1984;48.312;9.244;2023-02-28T15:23:19;10.07;;;5.63;;
3939;SDS011;1984;48.312;9.244;2023-02-28T15:25:47;11.77;;;6.47;;
3939;SDS011;1984;48.312;9.244;2023-02-28T15:28:15;7.33;;;5.70;;
3939;SDS011;1984;48.312;9.244;2023-02-28T15:30:50;8.60;;;5.50;;
3939;SDS011;1984;48.312;9.244;2023-02-28T15:33:28;10.80;;;6.40;;
3939;SDS011;1984;48.312;9.244;2023-02-28T15:36:06;6.33;;;5.07;;
3939;SDS011;1984;48.312;9.244;2023-02-28T15:38:38;6.90;;;5.00;;
3939;SDS011;1984;48.312;9.244;2023-02-28T15:41:03;9.53;;;6.33;;
3939;SDS011;1984;48.312;9.244;2023-02-28T15:43:34;13.10;;;7.77;;
3939;SDS011;1984;48.312;9.244;2023-02-28T15:46:08;5.73;;;5.03;;
3939;SDS011;1984;48.312;9.244;2023-02-28T15:48:50;4.07;;;3.27;;
3939;SDS011;1984;48.312;9.244;2023-02-28T15:51:23;11.40;;;6.07;;
3939;SDS011;1984;48.312;9.244;2023-02-28T15:53:58;15.37;;;7.73;;
3939;SDS011;1984;48.312;9.244;2023-02-28T15:56:30;13.27;;;6.60;;
3939;SDS011;1984;48.312;9.244;2023-02-28T15:59:04;16.23;;;8.30;;
3939;SDS011;1984;48.312;9.244;2023-02-28T16:01:35;11.20;;;6.93;;
3939;SDS011;1984;48.312;9.244;2023-02-28T16:04:03;13.93;;;7.23;;
3939;SDS011;1984;48.312;9.244;2023-02-28T16:06:40;33.03;;;17.07;;
3939;SDS011;1984;48.312;9.244;2023-02-28T16:09:25;8.80;;;6.27;;
3939;SDS011;1984;48.312;9.244;2023-02-28T16:11:52;10.73;;;7.00;;
3939;SDS011;1984;48.312;9.244;2023-02-28T16:14:21;18.90;;;9.80;;
3939;SDS011;1984;48.312;9.244;2023-02-28T16:16:49;17.20;;;7.03;;
3939;SDS011;1984;48.312;9.244;2023-02-28T16:19:20;52.67;;;21.60;;
3939;SDS011;1984;48.312;9.244;2023-02-28T16:21:46;13.20;;;9.20;;
3939;SDS011;1984;48.312;9.244;2023-02-28T16:24:12;6.00;;;5.20;;
3939;SDS011;1984;48.312;9.244;2023-02-28T16:26:39;7.37;;;5.40;;
3939;SDS011;1984;48.312;9.244;2023-02-28T16:29:06;10.10;;;6.27;;
3939;SDS011;1984;48.312;9.244;2023-02-28T16:31:33;9.83;;;6.30;;
3939;SDS011;1984;48.312;9.244;2023-02-28T16:34:02;12.47;;;6.70;;
3939;SDS011;1984;48.312;9.244;2023-02-28T16:36:28;7.10;;;4.57;;
3939;SDS011;1984;48.312;9.244;2023-02-28T16:38:55;16.90;;;6.93;;
3939;SDS011;1984;48.312;9.244;2023-02-28T16:41:22;9.87;;;7.43;;
3939;SDS011;1984;48.312;9.244;2023-02-28T16:43:51;13.80;;;8.37;;
3939;SDS011;1984;48.312;9.244;2023-02-28T16:46:19;8.77;;;7.00;;
3939;SDS011;1984;48.312;9.244;2023-02-28T16:48:45;10.30;;;6.90;;
3939;SDS011;1984;48.312;9.244;2023-02-28T16:51:14;11.83;;;6.40;;
3939;SDS011;1984;48.312;9.244;2023-02-28T16:53:41;9.50;;;7.07;;
3939;SDS011;1984;48.312;9.244;2023-02-28T16:56:20;6.47;;;4.93;;
3939;SDS011;1984;48.312;9.244;2023-02-28T16:58:49;13.03;;;6.67;;
3939;SDS011;1984;48.312;9.244;2023-02-28T17:01:16;6.50;;;5.03;;
3939;SDS011;1984;48.312;9.244;2023-02-28T17:03:46;12.00;;;7.30;;
3939;SDS011;1984;48.312;9.244;2023-02-28T17:06:20;9.40;;;5.80;;
3939;SDS011;1984;48.312;9.244;2023-02-28T17:08:52;9.43;;;5.73;;
3939;SDS011;1984;48.312;9.244;2023-02-28T17:11:19;8.53;;;6.23;;
3939;SDS011;1984;48.312;9.244;2023-02-28T17:13:45;18.67;;;7.43;;
3939;SDS011;1984;48.312;9.244;2023-02-28T17:16:13;17.40;;;8.53;;
3939;SDS011;1984;48.312;9.244;2023-02-28T17:19:04;12.40;;;7.40;;
3939;SDS011;1984;48.312;9.244;2023-02-28T17:21:31;8.50;;;5.47;;
3939;SDS011;1984;48.312;9.244;2023-02-28T17:23:58;14.83;;;8.50;;
3939;SDS011;1984;48.312;9.244;2023-02-28T17:26:24;12.13;;;6.93;;